Nearby METAR Reports

 

KHIF - Hill Afb/Ogden, Utah, USA
Distance from station: ENE 6mi, 9km
Updated: Tue, 15-Jan-2019 7:18pm MST
Mostly cloudy
Mostly cloudy
 Wind from SSE
Wind: SSE 6 mph , 9 km/h
Temperature: 27°F , -3°C
Wind Chill: 20°F , -7°C
Dew Point: 23°F , -5°C
Humidity: 86%
Barometer: 30.03 inHg , 1016.9 hPa
Clouds: Mostly cloudy
Visibility: 10 miles , 16 km
Cloud details: Mostly cloudy 3400 ft
Mostly cloudy 5500 ft
2019/01/16 02:18 KHIF 160218Z 15005KT 10SM BKN034 BKN055 M03/M05 A3003 RMK AO2A SLP196
KOGD - Ogden, Utah, USA
Distance from station: NNE 9mi, 14km
Updated: Tue, 15-Jan-2019 6:53pm MST
Overcast
Overcast
 Wind from calm
Wind: Calm
Temperature: 28°F , -2°C
Dew Point: 21°F , -6°C
Humidity: 74%
Barometer: 30.03 inHg , 1016.9 hPa
Clouds: Overcast
Visibility: 10 miles , 16 km
Cloud details: Overcast 5500 ft
2019/01/16 01:53 KOGD 160153Z 00000KT 10SM OVC055 M02/M06 A3003 RMK AO2 SLP195 T10221056
 
KSLC - Salt Lake City, Utah, USA
Distance from station: SSE 21mi, 34km
Updated: Tue, 15-Jan-2019 6:54pm MST
Mostly cloudy
Mostly cloudy
 Wind from N
Wind: N 3 mph , 6 km/h
Temperature: 28°F , -2°C
Dew Point: 25°F , -4°C
Humidity: 86%
Barometer: 30.05 inHg , 1017.6 hPa
Clouds: Mostly cloudy
Visibility: 9 miles , 14 km
Cloud details: Mostly cloudy 2300 ft
Mostly cloudy 8000 ft
Mostly cloudy 12000 ft
2019/01/16 01:54 KSLC 160154Z 36003KT 9SM BKN023 BKN080 BKN120 M02/M04 A3005 RMK AO2 SLP199 T10221044
KLGU - Logan, Utah, USA
Distance from station: NNE 50mi, 80km
Updated: Tue, 15-Jan-2019 6:51pm MST
Overcast
Overcast
 Wind from NW
Wind: NW 5 mph , 7 km/h
Temperature: 21°F , -6°C
Wind Chill: 14°F , -10°C
Dew Point: 16°F , -9°C
Humidity: 80%
Barometer: 30.06 inHg , 1017.9 hPa
Clouds: Overcast
Visibility: 7 miles , 11 km
Cloud details: Overcast 4800 ft
2019/01/16 01:51 KLGU 160151Z AUTO 32004KT 7SM OVC048 M06/M09 A3006 RMK AO2 SLP234 T10611089
 
K36U - Heber/Russ Mcdon, Utah, USA
Distance from station: SE 53mi, 85km
Updated: Wed, 11-Oct-2017 6:50pm MDT
NOT Current
Clear
Clear
 Wind from SSW
Wind: SSW 10 mph , 17 km/h, Gust: 18 mph , 30 km/h
Temperature: 63°F , 17°C
Dew Point: 16°F , -9°C
Humidity: 16%
Barometer: 29.87 inHg , 1011.5 hPa
Clouds: Clear
Visibility: 10 miles , 16 km
2017/10/12 00:50 K36U 120050Z AUTO 21009G16KT 10SM CLR 17/M09 A2987 RMK AO2
KEVW - Evanston, Wyoming, USA
Distance from station: ENE 55mi, 89km
Updated: Tue, 15-Jan-2019 6:53pm MST
Clear
Clear
 Wind from E
Wind: E 14 mph , 22 km/h
Temperature: 14°F , -10°C
Wind Chill: -1°F , -18°C
Dew Point: 7°F , -14°C
Humidity: 73%
Barometer: 30.03 inHg , 1016.9 hPa
Clouds: Clear
Visibility: 10 miles , 16 km
2019/01/16 01:53 KEVW 160153Z AUTO 10012KT 10SM CLR M10/M14 A3003 RMK AO2 SLP240 T11001144
 
KPVU - Provo Muni, Utah, USA
Distance from station: SSE 62mi, 100km
Updated: Tue, 15-Jan-2019 6:56pm MST
Mist, Overcast
Mist, Overcast
 
Temperature: 34°F , 1°C
Dew Point: 30°F , -1°C
Humidity: 87%
Barometer: 30.04 inHg , 1017.3 hPa
Summary: Mist
Clouds: Overcast
Visibility: 4 miles , 6 km
Cloud details: Overcast 6000 ft
2019/01/16 01:56 KPVU 160156Z 4SM BR OVC060 01/M01 A3004 RMK AO2 RAB02E34 SLP194 P0000 T00061006
KDPG - Dugway Prvg Grou, Utah, USA
Distance from station: SW 75mi, 121km
Updated: Tue, 15-Jan-2019 4:55pm MST
NOT Current
Mist, Overcast
Mist, Overcast
 Wind from WNW
Wind: WNW 2 mph , 4 km/h
Temperature: 30°F , -1°C
Dew Point: 27°F , -3°C
Humidity: 86%
Barometer: 30.06 inHg , 1017.9 hPa
Summary: Mist
Clouds: Overcast
Visibility: 6 miles , 10 km
Cloud details: Overcast 1400 ft
2019/01/15 23:55 KDPG 152355Z 30002KT 6SM BR OVC014 M01/M03 A3006 RMK SLP190 LAST T10141030 10011 21019 57009
 
KENV - Wendover (aut), Utah, USA
Distance from station: WSW 105mi, 169km
Updated: Tue, 15-Jan-2019 7:35pm MST
Overcast
Overcast
 Wind from W
Wind: W 3 mph , 6 km/h
Temperature: 28°F , -2°C
Dew Point: 25°F , -4°C
Humidity: 86%
Barometer: 30.06 inHg , 1017.9 hPa
Clouds: Overcast
Visibility: 10 miles , 16 km
Cloud details: Overcast 1300 ft
2019/01/16 02:35 KENV 160235Z AUTO 27003KT 10SM OVC013 M02/M04 A3006 RMK AO2 FZRANO
KPUC - Price, Utah, USA
Distance from station: SE 123mi, 197km
Updated: Tue, 15-Jan-2019 7:23pm MST
Light snow, Mist, Overcast
Light snow, Mist, Overcast
 Wind from calm
Wind: Calm
Temperature: 30°F , -1°C
Dew Point: 30°F , -1°C
Humidity: 100%
Barometer: 30.07 inHg , 1018.3 hPa
Summary: Light snow, Mist
Clouds: Overcast
Visibility: 1 mile , 2 km
Cloud details: Overcast 1300 ft
2019/01/16 02:23 KPUC 160223Z AUTO 00000KT 1SM -SN BR VV013 M01/M01 A3007 RMK AO2 P0002 T10111011
 
KPIH - Pocatello, Idaho, USA
Distance from station: NNW 130mi, 208km
Updated: Tue, 15-Jan-2019 6:53pm MST
Clear
Clear
 Wind from calm
Wind: Calm
Temperature: 19°F , -7°C
Dew Point: 16°F , -9°C
Humidity: 86%
Barometer: 30.04 inHg , 1017.3 hPa
Clouds: Clear
Visibility: 10 miles , 16 km
2019/01/16 01:53 KPIH 160153Z 00000KT 10SM CLR M07/M09 A3004 RMK AO2 SLP227 T10671089
KBYI - Burley, Idaho, USA
Distance from station: NW 134mi, 216km
Updated: Tue, 15-Jan-2019 6:53pm MST
Clear
Clear
 Wind from NE
Wind: NE 9 mph , 15 km/h
Temperature: 27°F , -3°C
Wind Chill: 18°F , -8°C
Dew Point: 21°F , -6°C
Humidity: 80%
Barometer: 29.99 inHg , 1015.6 hPa
Clouds: Clear
Visibility: 10 miles , 16 km
2019/01/16 01:53 KBYI 160153Z AUTO 05008KT 10SM CLR M03/M06 A2999 RMK AO2 SLP185 T10281056
 
KVEL - Vernal, Utah, USA
Distance from station: ESE 140mi, 226km
Updated: Tue, 15-Jan-2019 7:10pm MST
Light snow, Mist, Overcast
Light snow, Mist, Overcast
 Wind from calm
Wind: Calm
Temperature: 21°F , -6°C
Dew Point: 18°F , -8°C
Humidity: 86%
Barometer: 30.15 inHg , 1021 hPa
Summary: Light snow, Mist
Clouds: Overcast
Visibility: 1 1/4 miles , 2 km
Cloud details: Overcast 2600 ft
2019/01/16 02:10 KVEL 160210Z AUTO 00000KT 1 1/4SM -SN BR OVC026 M06/M08 A3015 RMK AO2 P0001 T10611083
KBPI - Big Piney, Wyoming, USA
Distance from station: NE 145mi, 234km
Updated: Tue, 15-Jan-2019 6:53pm MST
Overcast
Overcast
 Wind from calm
Wind: Calm
Temperature: 16°F , -9°C
Dew Point: 7°F , -14°C
Humidity: 67%
Barometer: 30.08 inHg , 1018.6 hPa
Clouds: Overcast
Visibility: 10 miles , 16 km
Cloud details: Overcast 4700 ft
2019/01/16 01:53 KBPI 160153Z AUTO 00000KT 10SM OVC047 M09/M14 A3008 RMK AO2 SLP293 T10941139